Terminal Aerodrome Forecast
Issued by NWS Wichita, KS

Home | Current Version | Previous Version | Graphics & Text | Print | Product List | Glossary On
Versions: 1 2 3 4 5 6 7 8 9 10 11 12 13 14 15 16 17 18 19 20 21 22 23 24 25 26 27 28 29 30 31
000
FTUS43 KICT 010330 AAB
TAFICT
TAF AMD
KICT 010330Z 0104/0124 13005KT P6SM OVC011
     FM010600 VRB03KT 6SM -SN OVC011
      TEMPO 0109/0113 3SM -FZDZSN OVC008
     FM011500 36005KT P6SM SCT020 BKN050=

USA.gov is the U.S. government's official web portal to all federal, state and local government web resources and services.